Orbital elements of COSMOS 1275 DEB
| Launched | 3 June 1981 |
| Flight ended | – |
| Launch site | Plesetsk Missile and Space Complex, Russia |
| Owner | Commonwealth of Independent States (former USSR) |
| NORAD ID | 12696 |
| Date fetched |
Epoch osculation |
Inc. [°] |
Ecc. | RA asc node [hr] |
Arg Peri. [°] |
Mean anom [°] |
Mean motion [rev/day] |
Abs. mag |
| Date fetched |
Epoch osculation |
Inc. [°] |
Ecc. | RA asc node [hr] |
Arg Peri. [°] |
Mean anom [°] |
Mean motion [rev/day] |
Abs. mag |
| 2026 May 08 17:57 | 2026 May 05 10:07:30 | 83.0698 | 0.01463 | 19.8251 | 332.8532 | 44.2956 | 13.53296 | – |
| 2026 May 07 17:58 | 2026 May 05 10:07:30 | 83.0698 | 0.01463 | 19.8251 | 332.8532 | 44.2956 | 13.53296 | – |
| 2026 May 06 17:57 | 2026 May 05 10:07:30 | 83.0698 | 0.01463 | 19.8251 | 332.8532 | 44.2956 | 13.53296 | – |
| 2026 May 05 17:57 | 2026 May 05 10:07:30 | 83.0698 | 0.01463 | 19.8251 | 332.8532 | 44.2956 | 13.53296 | – |
| 2026 May 04 17:57 | 2026 Apr 30 11:18:39 | 83.0697 | 0.01467 | 20.0566 | 346.2916 | 44.2956 | 13.53296 | – |
| 2026 May 03 17:57 | 2026 Apr 30 11:18:39 | 83.0697 | 0.01467 | 20.0566 | 346.2916 | 44.2956 | 13.53296 | – |
| 2026 May 02 17:57 | 2026 Apr 30 11:18:39 | 83.0697 | 0.01467 | 20.0566 | 346.2916 | 44.2956 | 13.53296 | – |
| 2026 May 01 17:56 | 2026 Apr 30 11:18:39 | 83.0697 | 0.01467 | 20.0566 | 346.2916 | 44.2956 | 13.53296 | – |
| 2026 Apr 30 17:56 | 2026 Apr 30 11:18:39 | 83.0697 | 0.01467 | 20.0566 | 346.2916 | 44.2956 | 13.53296 | – |
| 2026 Apr 29 17:57 | 2026 Apr 24 13:28:13 | 83.0699 | 0.01473 | 20.3330 | 2.2567 | 44.2956 | 13.53296 | – |
| 2026 Apr 28 17:56 | 2026 Apr 24 13:28:13 | 83.0699 | 0.01473 | 20.3330 | 2.2567 | 44.2956 | 13.53296 | – |
| 2026 Apr 27 17:58 | 2026 Apr 24 13:28:13 | 83.0699 | 0.01473 | 20.3330 | 2.2567 | 44.2956 | 13.53296 | – |
| 2026 Apr 26 17:58 | 2026 Apr 24 13:28:13 | 83.0699 | 0.01473 | 20.3330 | 2.2567 | 44.2956 | 13.53296 | – |
| 2026 Apr 25 17:58 | 2026 Apr 24 13:28:13 | 83.0699 | 0.01473 | 20.3330 | 2.2567 | 44.2956 | 13.53296 | – |
| 2026 Apr 24 17:59 | 2026 Apr 24 13:28:13 | 83.0699 | 0.01473 | 20.3330 | 2.2567 | 44.2956 | 13.53296 | – |
| 2026 Apr 23 17:57 | 2026 Apr 19 12:40:40 | 83.0704 | 0.01478 | 20.5683 | 15.7721 | 44.2956 | 13.53296 | – |
| 2026 Apr 22 17:57 | 2026 Apr 19 12:40:40 | 83.0704 | 0.01478 | 20.5683 | 15.7721 | 44.2956 | 13.53296 | – |
| 2026 Apr 21 17:57 | 2026 Apr 19 12:40:40 | 83.0704 | 0.01478 | 20.5683 | 15.7721 | 44.2956 | 13.53296 | – |
| 2026 Apr 20 17:57 | 2026 Apr 19 12:40:40 | 83.0704 | 0.01478 | 20.5683 | 15.7721 | 44.2956 | 13.53296 | – |
| 2026 Apr 19 17:58 | 2026 Apr 19 12:40:40 | 83.0704 | 0.01478 | 20.5683 | 15.7721 | 44.2956 | 13.53296 | – |
| 2026 Apr 18 17:56 | 2026 Apr 13 01:08:22 | 83.0713 | 0.01482 | 20.8713 | 33.1275 | 44.2956 | 13.53296 | – |
| 2026 Apr 16 17:57 | 2026 Apr 13 01:08:22 | 83.0713 | 0.01482 | 20.8713 | 33.1275 | 44.2956 | 13.53296 | – |
| 2026 Apr 14 17:57 | 2026 Apr 13 01:08:22 | 83.0713 | 0.01482 | 20.8713 | 33.1275 | 44.2956 | 13.53296 | – |
| 2026 Apr 13 17:57 | 2026 Apr 13 01:08:22 | 83.0713 | 0.01482 | 20.8713 | 33.1275 | 44.2956 | 13.53296 | – |
| 2026 Apr 12 17:57 | 2026 Apr 08 14:13:10 | 83.0720 | 0.01484 | 21.0796 | 45.0491 | 44.2956 | 13.53296 | – |
| 2026 Apr 11 17:57 | 2026 Apr 08 14:13:10 | 83.0720 | 0.01484 | 21.0796 | 45.0491 | 44.2956 | 13.53296 | – |